CST,Max TemperatureF,Mean TemperatureF,Min TemperatureF,Max Dew PointF,MeanDew PointF,Min DewpointF,Max Humidity, Mean Humidity, Min Humidity, Max Sea Level PressureIn, Mean Sea Level PressureIn, Min Sea Level PressureIn, Max VisibilityMiles, Mean VisibilityMiles, Min VisibilityMiles, Max Wind SpeedMPH, Mean Wind SpeedMPH, Max Gust SpeedMPH,PrecipitationIn, CloudCover, Events, WindDirDegrees
2013-1-1,71,66,61,67,64,60,100,93,78,30.09,30.00,29.96,10,9,2,13,9,18,0.04,6,Rain,202
2013-1-2,57,52,46,57,49,43,97,85,72,30.17,30.08,29.99,10,10,7,14,9,21,0.00,8,Rain,356
2013-1-3,46,42,37,45,41,31,100,91,74,30.35,30.24,30.18,10,9,4,12,7,18,0.05,7,Rain,355
2013-1-4,57,46,34,39,32,28,89,65,35,30.42,30.36,30.32,10,10,10,13,6,,0.00,4,,4
2013-1-5,54,48,41,41,35,29,70,58,45,30.37,30.31,30.24,10,10,10,10,7,,0.00,5,Rain,31
2013-1-6,53,50,46,46,41,37,90,71,57,30.27,30.21,30.18,10,10,10,13,6,18,0.00,7,Rain,11
2013-1-7,62,50,39,43,39,36,93,69,39,30.31,30.25,30.20,10,10,10,14,8,,0.00,2,,54
2013-1-8,62,56,50,57,51,42,90,80,72,30.27,30.20,30.17,10,10,8,12,9,,0.00,7,,68
2013-1-9,66,64,61,65,62,57,100,96,82,30.27,30.23,30.18,10,4,0,16,10,,0.00,8,Fog-Rain,84
2013-1-10,69,66,63,68,66,62,100,97,88,30.27,30.20,30.07,10,4,0,20,11,28,0.31,8,Fog-Rain,108
2013-1-11,73,68,62,70,67,62,100,93,78,30.17,30.12,30.09,10,9,3,12,7,,0.00,7,Fog,135
2013-1-12,73,68,64,68,67,64,100,96,81,30.14,30.06,30.01,10,8,5,13,8,23,0.00,7,,133
2013-1-13,72,69,66,70,68,66,100,98,87,30.04,30.00,29.96,10,7,4,14,10,,0.00,7,,159
2013-1-14,73,67,57,70,67,57,100,97,82,30.11,30.06,30.02,10,5,0,14,8,,0.00,7,Fog-Rain,166
2013-1-15,75,67,59,72,69,57,100,96,84,30.06,30.00,29.94,10,8,2,18,9,22,0.01,7,Rain,180
2013-1-16,70,58,45,70,59,45,100,99,94,30.04,29.97,29.93,10,6,0,14,10,23,1.36,8,Fog-Rain,314
2013-1-17,48,42,37,45,37,32,100,83,61,30.32,30.15,30.04,10,10,6,21,9,30,0.00,6,Rain,304
2013-1-18,60,48,36,39,36,33,100,73,36,30.50,30.42,30.34,10,10,10,14,8,21,0.00,1,Rain,14
2013-1-19,62,52,41,48,41,35,100,74,50,30.40,30.31,30.25,10,10,10,13,5,,0.00,3,,52
2013-1-20,64,52,39,49,44,40,100,81,45,30.27,30.20,30.14,10,10,6,9,4,,0.00,0,Rain,318
2013-1-21,66,54,43,47,43,39,100,73,39,30.21,30.16,30.12,10,9,2,8,5,,0.00,0,,332
2013-1-22,59,48,37,40,34,25,93,63,33,30.36,30.30,30.20,10,10,10,14,5,,0.00,3,,10
2013-1-23,63,49,35,51,44,34,97,80,55,30.42,30.35,30.31,10,10,9,10,3,,0.00,1,,221
2013-1-24,69,55,41,56,51,41,100,86,61,30.35,30.29,30.25,10,9,2,17,4,,0.00,3,Fog-Rain,246
2013-1-25,69,56,44,59,51,45,100,95,58,30.32,30.24,30.18,10,4,0,13,1,,0.00,3,Fog-Rain,207
2013-1-26,73,63,53,62,58,53,100,90,64,30.26,30.23,30.19,10,8,1,12,4,,0.00,3,Rain,252
2013-1-27,68,61,54,63,58,54,100,93,75,30.33,30.28,30.26,10,7,1,10,5,,0.00,3,,95
2013-1-28,69,61,53,66,61,54,100,95,81,30.31,30.24,30.18,10,7,0,13,6,,0.00,6,Fog-Rain,93
2013-1-29,73,70,66,70,68,66,100,95,83,30.16,30.07,29.91,10,7,2,21,11,26,0.00,7,Rain,146
2013-1-30,73,60,45,70,59,30,100,89,56,30.11,29.82,29.68,10,6,1,25,17,38,0.18,7,Rain,227
2013-1-31,59,46,34,39,31,25,93,59,27,30.32,30.24,30.13,10,10,10,13,6,22,0.00,1,,309